createdAt,value
2019-02-27T00:02:23.412Z,16.57
2019-02-27T00:07:29.561Z,17.40
2019-02-27T00:12:35.535Z,17.50
2019-02-27T00:17:41.602Z,15.97
2019-02-27T00:22:47.851Z,16.47
2019-02-27T00:27:55.552Z,16.57
2019-02-27T00:33:01.585Z,15.67
2019-02-27T00:38:07.712Z,15.60
2019-02-27T00:43:13.837Z,15.57
2019-02-27T00:48:19.793Z,14.40
2019-02-27T00:53:25.767Z,15.33
2019-02-27T00:58:33.084Z,15.73
2019-02-27T01:03:39.167Z,15.73
2019-02-27T01:08:45.276Z,15.13
2019-02-27T01:13:51.808Z,15.90
2019-02-27T01:18:58.024Z,14.87
2019-02-27T01:24:04.128Z,16.77
2019-02-27T01:29:10.171Z,15.90
2019-02-27T01:34:16.116Z,16.10
2019-02-27T01:39:22.451Z,16.73
2019-02-27T01:44:28.621Z,16.33
2019-02-27T01:49:34.684Z,16.63
2019-02-27T01:54:40.772Z,15.87
2019-02-27T01:59:50.037Z,16.87
2019-02-27T02:04:54.373Z,16.67
2019-02-27T02:10:00.971Z,17.10
2019-02-27T02:15:45.924Z,17.80
2019-02-27T02:21:27.239Z,16.53
2019-02-27T02:27:08.130Z,16.27
2019-02-27T02:32:40.478Z,14.63
2019-02-27T02:38:22.014Z,14.57
2019-02-27T02:43:56.094Z,14.77
2019-02-27T02:49:14.297Z,15.37
2019-02-27T02:55:12.162Z,15.00
2019-02-27T03:00:50.239Z,14.80
2019-02-27T03:06:39.409Z,14.73
2019-02-27T03:12:06.537Z,15.00
2019-02-27T03:17:55.149Z,14.20
2019-02-27T03:23:16.678Z,14.73
2019-02-27T03:28:53.836Z,15.03
2019-02-27T03:34:31.475Z,15.20
2019-02-27T03:39:48.737Z,14.97
2019-02-27T03:45:06.319Z,15.03
2019-02-27T03:50:40.276Z,15.93
2019-02-27T03:56:10.593Z,14.83
2019-02-27T04:01:45.102Z,15.30
2019-02-27T04:07:32.766Z,15.20
2019-02-27T04:12:41.765Z,15.60
2019-02-27T04:17:51.948Z,14.70
2019-02-27T04:22:54.266Z,14.70
2019-02-27T04:28:00.430Z,14.57
2019-02-27T04:33:06.604Z,15.90
2019-02-27T04:38:14.863Z,14.97
2019-02-27T04:43:21.068Z,14.97
2019-02-27T04:48:29.933Z,14.90
2019-02-27T04:53:35.406Z,15.17
2019-02-27T04:58:43.181Z,15.40
2019-02-27T05:03:49.904Z,13.70
2019-02-27T05:08:59.728Z,14.50
2019-02-27T05:14:04.155Z,13.57
2019-02-27T05:19:11.309Z,13.53
2019-02-27T05:24:17.398Z,13.80
2019-02-27T05:29:23.388Z,13.13
2019-02-27T05:34:29.557Z,13.40
2019-02-27T05:39:35.781Z,13.23
2019-02-27T05:44:42.227Z,14.43
2019-02-27T05:49:49.963Z,14.03
2019-02-27T05:54:56.024Z,13.60
2019-02-27T06:00:03.372Z,13.13
2019-02-27T06:05:10.739Z,14.90
2019-02-27T06:10:20.169Z,13.87
2019-02-27T06:15:26.084Z,13.43
2019-02-27T06:20:33.719Z,12.47
2019-02-27T06:25:39.864Z,11.80
2019-02-27T06:30:45.879Z,11.40
2019-02-27T06:35:52.020Z,12.43
2019-02-27T06:40:59.418Z,14.00
2019-02-27T06:46:05.749Z,11.77
2019-02-27T06:51:11.861Z,13.23
2019-02-27T06:56:18.287Z,12.47
2019-02-27T07:01:24.484Z,11.73
2019-02-27T07:06:30.673Z,12.60
2019-02-27T07:11:36.731Z,13.10
2019-02-27T07:16:42.954Z,12.67
2019-02-27T07:21:49.049Z,12.90
2019-02-27T07:26:55.384Z,12.77
2019-02-27T07:32:01.519Z,13.50
2019-02-27T07:37:07.613Z,13.67
2019-02-27T07:42:14.037Z,13.37
2019-02-27T07:47:20.094Z,13.97
2019-02-27T07:52:26.204Z,15.40
2019-02-27T07:57:32.217Z,14.83
2019-02-27T08:02:38.148Z,11.03
2019-02-27T08:07:48.654Z,8.60
2019-02-27T08:12:55.523Z,9.13
2019-02-27T08:18:00.389Z,9.80
2019-02-27T08:23:06.963Z,9.55
2019-02-27T08:28:13.195Z,9.30
2019-02-27T08:33:19.415Z,9.78
2019-02-27T08:38:25.493Z,9.68
2019-02-27T08:43:31.452Z,10.43
2019-02-27T08:48:39.388Z,9.40
2019-02-27T08:53:45.541Z,9.90
2019-02-27T08:58:51.497Z,11.43
2019-02-27T09:03:57.567Z,10.50
2019-02-27T09:09:04.969Z,10.38
2019-02-27T09:14:12.087Z,11.68
2019-02-27T09:19:21.805Z,12.73
2019-02-27T09:24:27.834Z,13.20
2019-02-27T09:29:34.093Z,13.88
2019-02-27T09:34:41.181Z,12.45
2019-02-27T09:39:47.621Z,12.85
2019-02-27T09:44:53.695Z,14.25
2019-02-27T09:49:59.745Z,14.83
2019-02-27T09:55:07.568Z,15.00
2019-02-27T10:00:30.723Z,14.53
2019-02-27T10:05:37.530Z,14.00
2019-02-27T10:10:45.775Z,14.45
2019-02-27T10:15:51.824Z,14.03
2019-02-27T10:20:57.905Z,14.10
2019-02-27T10:26:04.008Z,14.78
2019-02-27T10:31:10.026Z,13.28
2019-02-27T10:36:16.344Z,14.10
2019-02-27T10:41:22.946Z,14.73
2019-02-27T10:46:30.013Z,13.25
2019-02-27T10:51:37.071Z,14.68
2019-02-27T10:56:43.070Z,13.80
2019-02-27T11:01:49.142Z,13.18
2019-02-27T11:06:55.211Z,14.07
2019-02-27T11:12:02.448Z,14.28
2019-02-27T11:17:08.507Z,14.07
2019-02-27T11:22:16.779Z,14.90
2019-02-27T11:27:22.878Z,14.35
2019-02-27T11:32:29.913Z,14.43
2019-02-27T11:37:35.990Z,15.58
2019-02-27T11:42:42.082Z,14.50
2019-02-27T11:47:48.243Z,14.85
2019-02-27T11:52:55.364Z,14.85
2019-02-27T11:58:04.405Z,14.50
2019-02-27T12:03:11.093Z,14.90
2019-02-27T12:08:22.427Z,15.20
2019-02-27T12:13:27.512Z,14.13
2019-02-27T12:18:34.512Z,15.10
2019-02-27T12:23:44.181Z,14.90
2019-02-27T12:28:52.447Z,15.53
2019-02-27T12:34:02.526Z,16.02
2019-02-27T12:39:07.267Z,16.17
2019-02-27T12:44:13.712Z,16.73
2019-02-27T12:49:20.131Z,16.27
2019-02-27T12:54:27.491Z,15.50
2019-02-27T12:59:33.992Z,16.27
2019-02-27T13:04:40.265Z,16.27
2019-02-27T13:09:46.988Z,17.30
2019-02-27T13:14:52.971Z,16.40
2019-02-27T13:19:59.750Z,17.20
2019-02-27T13:25:06.264Z,17.30
2019-02-27T13:30:14.626Z,16.20
2019-02-27T13:35:23.224Z,15.95
2019-02-27T13:40:28.826Z,17.92
2019-02-27T13:45:36.024Z,16.90
2019-02-27T13:50:42.900Z,18.10
2019-02-27T13:55:49.428Z,17.50
2019-02-27T14:00:55.412Z,17.35
2019-02-27T14:06:01.476Z,18.65
2019-02-27T14:11:07.529Z,17.75
2019-02-27T14:16:13.769Z,17.95
2019-02-27T14:21:19.770Z,17.55
2019-02-27T14:26:25.828Z,17.60
2019-02-27T14:31:31.875Z,17.30
2019-02-27T14:36:39.344Z,17.75
2019-02-27T14:41:48.137Z,17.25
2019-02-27T14:46:53.675Z,18.70
2019-02-27T14:52:01.291Z,18.67
2019-02-27T14:57:08.466Z,18.48
2019-02-27T15:02:14.525Z,19.92
2019-02-27T15:07:22.167Z,20.62
2019-02-27T15:12:30.184Z,22.48
2019-02-27T15:17:39.247Z,22.77
2019-02-27T15:22:45.349Z,23.45
2019-02-27T15:27:51.467Z,23.62
2019-02-27T15:33:03.902Z,23.27
2019-02-27T15:38:14.548Z,24.37
2019-02-27T15:43:20.779Z,25.48
2019-02-27T15:48:26.749Z,26.20
2019-02-27T15:53:32.823Z,25.70
2019-02-27T15:58:38.831Z,25.23
2019-02-27T16:03:46.873Z,24.98
2019-02-27T16:08:57.351Z,24.67
2019-02-27T16:14:01.628Z,26.90
2019-02-27T16:19:10.761Z,27.35
2019-02-27T16:24:16.163Z,27.02
2019-02-27T16:29:23.656Z,27.85
2019-02-27T16:34:33.258Z,28.00
2019-02-27T16:39:41.183Z,29.30
2019-02-27T16:44:45.200Z,29.40
2019-02-27T16:49:51.358Z,29.50
2019-02-27T16:55:00.749Z,28.47
2019-02-27T17:00:06.285Z,28.92
2019-02-27T17:05:16.829Z,29.35
2019-02-27T17:10:25.120Z,28.67
2019-02-27T17:15:34.638Z,29.45
2019-02-27T17:20:39.141Z,30.82
2019-02-27T17:25:45.181Z,30.68
2019-02-27T17:30:51.347Z,30.15
2019-02-27T17:35:59.366Z,31.17
2019-02-27T17:41:08.895Z,31.75
2019-02-27T17:46:17.949Z,31.70
2019-02-27T17:51:22.889Z,29.75
2019-02-27T17:56:30.519Z,30.45
2019-02-27T18:01:37.280Z,30.75
2019-02-27T18:06:43.298Z,30.87
2019-02-27T18:11:49.446Z,30.62
2019-02-27T18:16:59.307Z,30.90
2019-02-27T18:22:05.178Z,31.03
2019-02-27T18:27:11.229Z,30.05
2019-02-27T18:32:17.280Z,31.37
2019-02-27T18:37:23.354Z,31.42
2019-02-27T18:42:29.436Z,31.70
2019-02-27T18:47:35.895Z,30.55
2019-02-27T18:52:42.169Z,30.95
2019-02-27T18:57:48.241Z,31.42
2019-02-27T19:02:55.084Z,31.13
2019-02-27T19:08:01.245Z,32.80
2019-02-27T19:13:07.421Z,31.62
2019-02-27T19:18:13.711Z,32.15
2019-02-27T19:23:19.959Z,32.80
2019-02-27T19:28:26.157Z,32.57
2019-02-27T19:33:32.627Z,33.13
2019-02-27T19:38:39.966Z,33.53
2019-02-27T19:43:45.971Z,33.43
2019-02-27T19:48:52.013Z,34.80
2019-02-27T19:53:57.942Z,33.90
2019-02-27T19:59:03.978Z,34.23
2019-02-27T20:04:10.227Z,34.53
2019-02-27T20:09:20.247Z,34.40
2019-02-27T20:14:24.114Z,33.53
2019-02-27T20:19:30.333Z,33.67
2019-02-27T20:24:36.361Z,34.03
2019-02-27T20:29:42.545Z,33.23
2019-02-27T20:34:48.542Z,33.20
2019-02-27T20:39:58.274Z,32.87
2019-02-27T20:45:02.229Z,33.40
2019-02-27T20:50:11.621Z,30.97
2019-02-27T20:55:17.748Z,30.87
2019-02-27T21:00:24.578Z,31.17
2019-02-27T21:05:31.037Z,29.73
2019-02-27T21:10:37.031Z,30.07
2019-02-27T21:15:43.175Z,31.13
2019-02-27T21:20:50.925Z,31.57
2019-02-27T21:25:57.367Z,30.07
2019-02-27T21:31:03.525Z,30.43
2019-02-27T21:36:09.575Z,30.47
2019-02-27T21:41:15.692Z,31.03
2019-02-27T21:46:21.833Z,32.77
2019-02-27T21:51:28.215Z,33.17
2019-02-27T21:56:34.330Z,32.30
2019-02-27T22:01:40.683Z,31.13
2019-02-27T22:06:46.809Z,31.33
2019-02-27T22:11:53.201Z,30.87
2019-02-27T22:17:01.646Z,29.60
2019-02-27T22:22:08.032Z,30.77
2019-02-27T22:27:17.412Z,30.77
2019-02-27T22:32:23.440Z,30.73
2019-02-27T22:37:29.402Z,30.83
2019-02-27T22:42:35.547Z,30.57
2019-02-27T22:47:41.638Z,30.77
2019-02-27T22:52:47.783Z,30.30
2019-02-27T22:57:55.549Z,31.63
2019-02-27T23:03:01.864Z,31.10
2019-02-27T23:08:09.370Z,33.07
2019-02-27T23:13:15.501Z,31.40
2019-02-27T23:18:21.759Z,32.17
2019-02-27T23:23:27.956Z,32.67
2019-02-27T23:28:34.854Z,33.77
2019-02-27T23:33:41.883Z,33.80
2019-02-27T23:38:48.025Z,32.87
2019-02-27T23:43:55.428Z,33.80
2019-02-27T23:49:01.419Z,32.20
2019-02-27T23:54:07.603Z,32.90
2019-02-27T23:59:13.725Z,32.70
